Terminal Aerodrome Forecast
Issued by NWS Missoula, MT

Home | Current Version | Previous Version | Text Only | Print | Product List | Glossary On
Versions: 1 2 3 4 5 6 7 8 9 10 11 12 13 14 15 16 17
633
FTUS45 KMSO 181738
TAFGPI
TAF
KGPI 181738Z 1818/1918 00000KT 3SM -FZRASN BKN030 OVC050
     FM182000 18005KT P6SM VCSH OVC050
     FM190000 18007KT 4SM -RASN BR OVC035=

USA.gov is the U.S. government's official web portal to all federal, state and local government web resources and services.